createdAt,value
2019-03-18T00:00:55.696Z,66.74
2019-03-18T00:01:55.674Z,66.46
2019-03-18T00:02:55.658Z,66.63
2019-03-18T00:03:55.641Z,66.63
2019-03-18T00:04:55.638Z,66.63
2019-03-18T00:05:55.624Z,66.63
2019-03-18T00:06:55.611Z,66.42
2019-03-18T00:07:55.609Z,66.46
2019-03-18T00:08:55.590Z,66.84
2019-03-18T00:09:55.583Z,66.46
2019-03-18T00:10:55.574Z,67.18
2019-03-18T00:11:55.561Z,66.97
2019-03-18T00:12:55.551Z,67.39
2019-03-18T00:13:55.552Z,67.60
2019-03-18T00:15:01.334Z,66.35
2019-03-18T00:15:56.528Z,67.91
2019-03-18T00:16:55.512Z,67.60
2019-03-18T00:17:55.519Z,68.12
2019-03-18T00:18:55.486Z,67.70
2019-03-18T00:19:55.480Z,67.91
2019-03-18T00:20:55.469Z,67.91
2019-03-18T00:21:55.454Z,67.80
2019-03-18T00:22:55.444Z,67.80
2019-03-18T00:23:55.453Z,68.12
2019-03-18T00:24:55.445Z,67.70
2019-03-18T00:25:55.423Z,67.91
2019-03-18T00:26:55.408Z,68.01
2019-03-18T00:27:55.406Z,67.94
2019-03-18T00:28:55.382Z,67.91
2019-03-18T00:29:55.375Z,68.01
2019-03-18T00:30:55.364Z,68.01
2019-03-18T00:31:55.365Z,67.70
2019-03-18T00:32:55.345Z,67.80
2019-03-18T00:33:55.331Z,67.60
2019-03-18T00:34:55.351Z,68.22
2019-03-18T00:35:55.315Z,67.91
2019-03-18T00:36:55.307Z,67.91
2019-03-18T00:37:55.355Z,67.80
2019-03-18T00:38:55.293Z,68.12
2019-03-18T00:39:55.274Z,68.22
2019-03-18T00:40:55.267Z,68.53
2019-03-18T00:41:55.263Z,68.32
2019-03-18T00:42:55.241Z,68.01
2019-03-18T00:43:55.225Z,68.12
2019-03-18T00:44:55.217Z,68.22
2019-03-18T00:45:55.216Z,68.22
2019-03-18T00:46:55.235Z,68.74
2019-03-18T00:47:55.185Z,68.56
2019-03-18T00:48:55.185Z,68.98
2019-03-18T00:49:55.180Z,68.77
2019-03-18T00:50:55.162Z,69.08
2019-03-18T00:51:55.145Z,69.39
2019-03-18T00:52:55.135Z,69.90
2019-03-18T00:53:55.120Z,69.80
2019-03-18T00:54:55.111Z,69.60
2019-03-18T00:55:55.112Z,70.21
2019-03-18T00:56:55.093Z,69.90
2019-03-18T00:57:55.104Z,70.63
2019-03-18T00:58:55.068Z,70.32
2019-03-18T00:59:55.084Z,70.76
2019-03-18T01:00:55.087Z,71.15
2019-03-18T01:01:55.056Z,70.97
2019-03-18T01:02:55.026Z,71.70
2019-03-18T01:03:55.025Z,71.80
2019-03-18T01:04:55.007Z,71.59
2019-03-18T01:05:55.031Z,72.01
2019-03-18T01:06:54.998Z,71.88
2019-03-18T01:07:54.979Z,71.59
2019-03-18T01:08:54.967Z,71.59
2019-03-18T01:09:54.975Z,72.01
2019-03-18T01:10:54.976Z,71.70
2019-03-18T01:11:54.934Z,71.80
2019-03-18T01:12:54.923Z,72.01
2019-03-18T01:13:54.913Z,71.91
2019-03-18T01:14:54.917Z,71.80
2019-03-18T01:15:54.895Z,72.11
2019-03-18T01:16:54.903Z,72.11
2019-03-18T01:17:54.872Z,72.01
2019-03-18T01:18:54.895Z,72.22
2019-03-18T01:19:54.854Z,71.80
2019-03-18T01:20:54.843Z,72.22
2019-03-18T01:21:54.864Z,72.42
2019-03-18T01:22:54.845Z,72.32
2019-03-18T01:23:54.818Z,72.25
2019-03-18T01:24:54.801Z,72.32
2019-03-18T01:25:54.793Z,72.15
2019-03-18T01:26:54.789Z,72.32
2019-03-18T01:27:54.776Z,72.46
2019-03-18T01:28:54.761Z,72.22
2019-03-18T01:29:54.757Z,72.25
2019-03-18T01:30:54.753Z,72.67
2019-03-18T01:31:54.742Z,73.08
2019-03-18T01:32:54.750Z,73.18
2019-03-18T01:33:54.758Z,72.77
2019-03-18T01:34:54.759Z,72.98
2019-03-18T01:35:54.691Z,72.88
2019-03-18T01:36:54.718Z,72.98
2019-03-18T01:37:54.671Z,72.98
2019-03-18T01:38:54.654Z,72.98
2019-03-18T01:39:54.643Z,72.98
2019-03-18T01:40:54.632Z,72.88
2019-03-18T01:41:54.635Z,72.77
2019-03-18T01:42:54.612Z,72.98
2019-03-18T01:43:54.610Z,73.08
2019-03-18T01:44:54.595Z,73.01
2019-03-18T01:45:54.606Z,73.11
2019-03-18T01:46:54.583Z,72.91
2019-03-18T01:47:54.574Z,73.01
2019-03-18T01:48:54.552Z,73.32
2019-03-18T01:49:54.541Z,73.63
2019-03-18T01:50:54.531Z,73.53
2019-03-18T01:51:54.531Z,73.43
2019-03-18T01:52:54.514Z,73.22
2019-03-18T01:53:54.512Z,73.74
2019-03-18T01:54:54.507Z,73.74
2019-03-18T01:55:54.518Z,73.63
2019-03-18T01:56:54.478Z,73.94
2019-03-18T01:57:54.465Z,73.94
2019-03-18T01:58:54.449Z,74.15
2019-03-18T01:59:54.436Z,73.74
2019-03-18T02:00:54.429Z,74.05
2019-03-18T02:01:54.430Z,73.98
2019-03-18T02:02:54.405Z,74.46
2019-03-18T02:03:54.397Z,74.50
2019-03-18T02:04:54.387Z,74.50
2019-03-18T02:05:54.375Z,74.91
2019-03-18T02:06:54.379Z,74.71
2019-03-18T02:07:54.352Z,74.60
2019-03-18T02:08:54.379Z,74.40
2019-03-18T02:09:54.400Z,74.60
2019-03-18T02:10:54.339Z,75.02
2019-03-18T02:11:54.321Z,74.91
2019-03-18T02:12:54.303Z,74.60
2019-03-18T02:13:54.289Z,74.71
2019-03-18T02:14:54.278Z,74.60
2019-03-18T02:15:54.277Z,74.71
2019-03-18T02:16:54.272Z,75.02
2019-03-18T02:17:54.268Z,75.23
2019-03-18T02:18:54.274Z,75.33
2019-03-18T02:19:54.243Z,75.02
2019-03-18T02:20:54.223Z,74.71
2019-03-18T02:21:54.228Z,75.02
2019-03-18T02:22:54.198Z,74.60
2019-03-18T02:23:54.204Z,74.81
2019-03-18T02:24:54.178Z,74.95
2019-03-18T02:25:54.168Z,75.02
2019-03-18T02:26:54.162Z,74.95
2019-03-18T02:27:54.188Z,74.91
2019-03-18T02:28:54.147Z,75.23
2019-03-18T02:29:54.143Z,74.95
2019-03-18T02:30:54.125Z,75.02
2019-03-18T02:31:54.164Z,75.88
2019-03-18T02:32:54.102Z,75.26
2019-03-18T02:33:54.098Z,75.26
2019-03-18T02:34:54.070Z,75.26
2019-03-18T02:35:54.069Z,75.05
2019-03-18T02:36:54.052Z,75.05
2019-03-18T02:37:54.050Z,75.36
2019-03-18T02:38:54.029Z,75.26
2019-03-18T02:39:54.028Z,75.46
2019-03-18T02:40:54.009Z,74.95
2019-03-18T02:41:54.027Z,74.95
2019-03-18T02:42:53.993Z,75.57
2019-03-18T02:43:53.985Z,75.57
2019-03-18T02:44:53.975Z,75.67
2019-03-18T02:46:09.394Z,75.05
2019-03-18T02:46:54.946Z,75.88
2019-03-18T02:47:53.946Z,75.88
2019-03-18T02:48:53.926Z,75.67
2019-03-18T02:49:53.920Z,75.26
2019-03-18T02:50:53.912Z,75.98
2019-03-18T02:51:53.894Z,75.29
2019-03-18T02:52:53.896Z,75.67
2019-03-18T02:53:53.873Z,75.71
2019-03-18T02:54:53.873Z,75.67
2019-03-18T02:55:53.857Z,75.71
2019-03-18T02:56:53.847Z,75.50
2019-03-18T02:57:53.849Z,75.98
2019-03-18T02:58:53.824Z,75.40
2019-03-18T02:59:53.812Z,75.71
2019-03-18T03:00:53.803Z,75.67
2019-03-18T03:01:53.789Z,75.78
2019-03-18T03:02:53.844Z,75.40
2019-03-18T03:03:53.770Z,75.40
2019-03-18T03:04:53.784Z,75.71
2019-03-18T03:05:53.766Z,75.71
2019-03-18T03:06:53.743Z,76.33
2019-03-18T03:07:53.737Z,76.23
2019-03-18T03:08:53.717Z,75.40
2019-03-18T03:09:53.712Z,76.54
2019-03-18T03:10:53.703Z,76.23
2019-03-18T03:11:53.698Z,76.33
2019-03-18T03:12:53.689Z,75.92
2019-03-18T03:13:53.666Z,76.54
2019-03-18T03:14:53.658Z,75.60
2019-03-18T03:15:53.659Z,76.33
2019-03-18T03:16:53.695Z,76.02
2019-03-18T03:17:53.663Z,76.43
2019-03-18T03:18:53.625Z,76.43
2019-03-18T03:19:53.603Z,75.92
2019-03-18T03:20:53.592Z,76.33
2019-03-18T03:21:53.582Z,76.43
2019-03-18T03:22:53.579Z,76.02
2019-03-18T03:23:53.570Z,76.12
2019-03-18T03:24:53.555Z,76.43
2019-03-18T03:25:53.556Z,76.54
2019-03-18T03:26:53.533Z,75.81
2019-03-18T03:27:53.552Z,76.09
2019-03-18T03:28:53.515Z,76.54
2019-03-18T03:29:53.500Z,76.33
2019-03-18T03:30:53.489Z,76.64
2019-03-18T03:31:53.480Z,77.26
2019-03-18T03:32:53.483Z,77.26
2019-03-18T03:33:53.467Z,76.43
2019-03-18T03:34:53.448Z,76.50
2019-03-18T03:35:53.450Z,76.40
2019-03-18T03:36:53.433Z,76.43
2019-03-18T03:37:53.430Z,76.71
2019-03-18T03:38:53.410Z,76.40
2019-03-18T03:39:53.400Z,75.98
2019-03-18T03:40:53.395Z,75.88
2019-03-18T03:41:53.394Z,76.26
2019-03-18T03:42:53.410Z,75.95
2019-03-18T03:43:53.359Z,76.47
2019-03-18T03:44:53.344Z,76.37
2019-03-18T03:45:53.344Z,76.16
2019-03-18T03:46:53.346Z,75.12
2019-03-18T03:47:53.319Z,75.74
2019-03-18T03:48:53.317Z,75.54
2019-03-18T03:49:53.293Z,76.37
2019-03-18T03:50:53.309Z,76.37
2019-03-18T03:51:53.276Z,75.43
2019-03-18T03:52:53.271Z,75.64
2019-03-18T03:53:53.263Z,75.60
2019-03-18T03:54:53.242Z,75.92
2019-03-18T03:55:53.235Z,75.60
2019-03-18T03:56:53.218Z,75.40
2019-03-18T03:57:53.211Z,76.12
2019-03-18T03:58:53.215Z,75.50
2019-03-18T03:59:53.189Z,75.50
2019-03-18T04:00:53.176Z,75.40
2019-03-18T04:01:53.167Z,75.40
2019-03-18T04:02:53.158Z,75.92
2019-03-18T04:03:53.172Z,76.12
2019-03-18T04:04:53.137Z,76.23
2019-03-18T04:05:53.177Z,76.23
2019-03-18T04:06:53.135Z,75.29
2019-03-18T04:07:53.113Z,75.40
2019-03-18T04:08:53.125Z,75.40
2019-03-18T04:09:53.085Z,75.50
2019-03-18T04:10:53.072Z,75.40
2019-03-18T04:11:53.065Z,75.40
2019-03-18T04:12:53.053Z,74.98
2019-03-18T04:13:53.072Z,75.92
2019-03-18T04:14:53.039Z,75.71
2019-03-18T04:15:53.023Z,75.40
2019-03-18T04:17:01.578Z,75.46
2019-03-18T04:17:54.000Z,75.57
2019-03-18T04:18:53.006Z,75.57
2019-03-18T04:19:52.996Z,75.57
2019-03-18T04:20:52.986Z,75.36
2019-03-18T04:21:52.993Z,75.36
2019-03-18T04:22:52.959Z,75.67
2019-03-18T04:23:52.950Z,75.36
2019-03-18T04:24:52.929Z,75.46
2019-03-18T04:25:52.928Z,75.15
2019-03-18T04:26:52.921Z,75.36
2019-03-18T04:27:52.912Z,75.36
2019-03-18T04:28:52.918Z,75.26
2019-03-18T04:29:52.877Z,75.57
2019-03-18T04:30:52.872Z,75.67
2019-03-18T04:31:52.862Z,75.57
2019-03-18T04:32:52.846Z,75.67
2019-03-18T04:33:52.849Z,75.36
2019-03-18T04:34:52.825Z,75.36
2019-03-18T04:35:53.152Z,76.33
2019-03-18T04:36:52.812Z,76.19
2019-03-18T04:37:52.792Z,75.92
2019-03-18T04:38:52.797Z,76.40
2019-03-18T04:39:52.773Z,76.23
2019-03-18T04:40:52.770Z,76.64
2019-03-18T04:41:52.754Z,76.33
2019-03-18T04:42:52.753Z,76.33
2019-03-18T04:43:52.751Z,76.54
2019-03-18T04:44:52.738Z,76.64
2019-03-18T04:45:52.739Z,76.54
2019-03-18T04:46:52.700Z,76.23
2019-03-18T04:47:52.689Z,77.26
2019-03-18T04:48:52.691Z,77.16
2019-03-18T04:49:52.670Z,76.43
2019-03-18T04:50:52.660Z,76.33
2019-03-18T04:51:52.646Z,76.95
2019-03-18T04:52:52.652Z,76.33
2019-03-18T04:53:52.639Z,76.75
2019-03-18T04:54:52.620Z,77.33
2019-03-18T04:55:52.625Z,76.85
2019-03-18T04:56:52.604Z,76.75
2019-03-18T04:57:52.587Z,77.16
2019-03-18T04:58:52.584Z,77.06
2019-03-18T04:59:52.575Z,78.41
2019-03-18T05:00:52.568Z,78.09
2019-03-18T05:01:52.543Z,77.58
2019-03-18T05:02:52.532Z,78.09
2019-03-18T05:03:52.534Z,79.30
2019-03-18T05:04:52.520Z,78.41
2019-03-18T05:05:52.513Z,78.06
2019-03-18T05:06:52.501Z,77.68
2019-03-18T05:07:52.480Z,77.37
2019-03-18T05:08:52.650Z,77.54
2019-03-18T05:09:52.471Z,77.58
2019-03-18T05:10:52.452Z,80.37
2019-03-18T05:11:52.593Z,79.55
2019-03-18T05:12:52.429Z,77.78
2019-03-18T05:13:52.489Z,79.44
2019-03-18T05:14:52.426Z,79.34
2019-03-18T05:15:52.425Z,78.20
2019-03-18T05:16:52.401Z,77.26
2019-03-18T05:17:52.378Z,77.47
2019-03-18T05:18:52.386Z,77.26
2019-03-18T05:19:52.371Z,77.47
2019-03-18T05:20:52.359Z,77.99
2019-03-18T05:21:52.336Z,77.78
2019-03-18T05:22:52.324Z,77.37
2019-03-18T05:23:52.315Z,77.26
2019-03-18T05:24:52.320Z,77.26
2019-03-18T05:25:52.301Z,77.78
2019-03-18T05:26:52.283Z,77.68
2019-03-18T05:27:52.286Z,77.58
2019-03-18T05:28:52.435Z,77.16
2019-03-18T05:29:52.367Z,77.06
2019-03-18T05:30:52.477Z,77.16
2019-03-18T05:31:52.315Z,76.75
2019-03-18T05:32:52.296Z,76.29
2019-03-18T05:33:52.211Z,76.19
2019-03-18T05:34:52.241Z,76.61
2019-03-18T05:35:52.202Z,76.61
2019-03-18T05:36:52.238Z,76.92
2019-03-18T05:37:52.207Z,76.19
2019-03-18T05:38:52.168Z,77.23
2019-03-18T05:39:52.160Z,76.40
2019-03-18T05:40:52.142Z,76.61
2019-03-18T05:41:52.151Z,77.02
2019-03-18T05:42:52.116Z,76.40
2019-03-18T05:43:52.121Z,76.85
2019-03-18T05:44:52.107Z,76.64
2019-03-18T05:45:52.086Z,77.06
2019-03-18T05:46:52.077Z,77.06
2019-03-18T05:47:52.066Z,77.26
2019-03-18T05:48:52.058Z,77.37
2019-03-18T05:49:53.981Z,77.06
2019-03-18T05:50:52.041Z,77.16
2019-03-18T05:51:52.030Z,76.75
2019-03-18T05:52:52.013Z,77.06
2019-03-18T05:53:52.002Z,77.16
2019-03-18T05:54:52.003Z,77.26
2019-03-18T05:55:51.981Z,77.16
2019-03-18T05:56:51.973Z,76.85
2019-03-18T05:57:51.962Z,76.95
2019-03-18T05:58:51.951Z,77.37
2019-03-18T05:59:51.950Z,77.58
2019-03-18T06:00:51.934Z,77.68
2019-03-18T06:01:51.921Z,77.58
2019-03-18T06:02:51.973Z,77.68
2019-03-18T06:03:51.898Z,77.68
2019-03-18T06:04:51.904Z,77.58
2019-03-18T06:05:51.885Z,76.81
2019-03-18T06:06:51.877Z,77.23
2019-03-18T06:07:51.861Z,77.33
2019-03-18T06:08:51.848Z,76.81
2019-03-18T06:09:51.845Z,77.12
2019-03-18T06:10:51.835Z,76.61
2019-03-18T06:11:51.826Z,77.54
2019-03-18T06:12:51.804Z,77.75
2019-03-18T06:13:51.797Z,77.64
2019-03-18T06:14:51.798Z,77.44
2019-03-18T06:15:51.776Z,77.75
2019-03-18T06:16:51.780Z,76.88
2019-03-18T06:17:53.089Z,76.78
2019-03-18T06:18:51.741Z,77.29
2019-03-18T06:19:51.746Z,76.15
2019-03-18T06:20:51.735Z,75.32
2019-03-18T06:21:51.726Z,75.43
2019-03-18T06:22:51.700Z,75.02
2019-03-18T06:23:51.706Z,74.71
2019-03-18T06:24:51.688Z,74.98
2019-03-18T06:25:51.719Z,74.15
2019-03-18T06:26:51.774Z,73.94
2019-03-18T06:27:51.649Z,73.74
2019-03-18T06:28:51.642Z,73.84
2019-03-18T06:29:51.650Z,74.08
2019-03-18T06:30:51.622Z,73.53
2019-03-18T06:31:51.608Z,73.43
2019-03-18T06:32:51.598Z,73.43
2019-03-18T06:33:51.602Z,73.25
2019-03-18T06:34:51.585Z,73.11
2019-03-18T06:35:51.578Z,73.01
2019-03-18T06:36:51.557Z,73.11
2019-03-18T06:37:51.544Z,72.56
2019-03-18T06:38:51.538Z,72.77
2019-03-18T06:39:51.523Z,72.91
2019-03-18T06:40:51.519Z,73.19
2019-03-18T06:41:51.505Z,71.94
2019-03-18T06:42:51.502Z,72.36
2019-03-18T06:43:51.488Z,72.25
2019-03-18T06:44:51.474Z,71.94
2019-03-18T06:45:51.465Z,71.94
2019-03-18T06:46:51.454Z,72.46
2019-03-18T06:48:03.881Z,72.46
2019-03-18T06:48:52.431Z,72.46
2019-03-18T06:49:51.453Z,72.05
2019-03-18T06:50:51.412Z,71.94
2019-03-18T06:51:51.407Z,71.33
2019-03-18T06:52:51.388Z,71.63
2019-03-18T06:53:51.386Z,71.84
2019-03-18T06:54:51.394Z,71.84
2019-03-18T06:55:51.387Z,71.33
2019-03-18T06:56:51.351Z,71.53
2019-03-18T06:57:51.340Z,70.91
2019-03-18T06:58:51.343Z,70.60
2019-03-18T06:59:51.315Z,70.81
2019-03-18T07:00:51.327Z,70.67
2019-03-18T07:01:51.296Z,70.29
2019-03-18T07:02:51.285Z,70.36
2019-03-18T07:03:51.329Z,70.18
2019-03-18T07:04:51.269Z,70.29
2019-03-18T07:05:51.263Z,70.70
2019-03-18T07:06:51.243Z,70.67
2019-03-18T07:07:51.256Z,70.77
2019-03-18T07:08:51.241Z,70.26
2019-03-18T07:09:51.212Z,71.29
2019-03-18T07:10:53.414Z,71.08
2019-03-18T07:11:51.191Z,70.15
2019-03-18T07:12:51.192Z,70.43
2019-03-18T07:13:51.182Z,70.57
2019-03-18T07:14:51.160Z,70.67
2019-03-18T07:15:51.170Z,69.84
2019-03-18T07:16:51.145Z,69.50
2019-03-18T07:17:51.129Z,68.98
2019-03-18T07:18:51.121Z,68.36
2019-03-18T07:19:51.108Z,68.64
2019-03-18T07:20:51.125Z,68.88
2019-03-18T07:21:51.086Z,68.43
2019-03-18T07:22:51.076Z,67.91
2019-03-18T07:23:51.070Z,67.50
2019-03-18T07:24:51.063Z,68.02
2019-03-18T07:25:51.058Z,67.71
2019-03-18T07:26:51.059Z,67.71
2019-03-18T07:27:51.024Z,67.71
2019-03-18T07:28:51.020Z,67.91
2019-03-18T07:29:51.005Z,67.82
2019-03-18T07:30:51.038Z,66.06
2019-03-18T07:31:50.986Z,67.50
2019-03-18T07:32:50.980Z,67.71
2019-03-18T07:33:50.960Z,67.91
2019-03-18T07:34:50.954Z,67.50
2019-03-18T07:35:50.967Z,67.50
2019-03-18T07:36:50.934Z,67.82
2019-03-18T07:37:50.929Z,67.91
2019-03-18T07:38:50.918Z,67.99
2019-03-18T07:39:50.898Z,66.26
2019-03-18T07:40:50.897Z,67.68
2019-03-18T07:41:50.880Z,67.61
2019-03-18T07:42:50.870Z,67.82
2019-03-18T07:43:50.872Z,67.71
2019-03-18T07:44:50.846Z,67.68
2019-03-18T07:45:50.857Z,67.47
2019-03-18T07:46:50.830Z,67.47
2019-03-18T07:47:50.815Z,67.88
2019-03-18T07:48:50.806Z,67.58
2019-03-18T07:49:50.811Z,67.68
2019-03-18T07:50:50.809Z,66.13
2019-03-18T07:51:50.776Z,66.54
2019-03-18T07:52:50.773Z,67.68
2019-03-18T07:53:50.780Z,67.27
2019-03-18T07:54:50.748Z,66.75
2019-03-18T07:55:50.856Z,67.99
2019-03-18T07:56:50.726Z,67.13
2019-03-18T07:57:50.722Z,67.06
2019-03-18T07:58:50.703Z,66.41
2019-03-18T07:59:50.689Z,67.44
2019-03-18T08:00:50.817Z,66.51
2019-03-18T08:01:50.693Z,66.82
2019-03-18T08:02:50.660Z,65.89
2019-03-18T08:03:50.649Z,66.30
2019-03-18T08:04:50.646Z,67.03
2019-03-18T08:05:50.656Z,67.96
2019-03-18T08:06:50.629Z,67.96
2019-03-18T08:07:50.609Z,67.54
2019-03-18T08:08:53.314Z,67.85
2019-03-18T08:09:50.586Z,68.06
2019-03-18T08:10:50.591Z,68.27
2019-03-18T08:11:50.588Z,68.58
2019-03-18T08:12:50.554Z,68.68
2019-03-18T08:13:50.546Z,68.27
2019-03-18T08:14:50.532Z,68.48
2019-03-18T08:15:50.524Z,68.58
2019-03-18T08:16:50.531Z,68.16
2019-03-18T08:17:50.501Z,68.37
2019-03-18T08:18:50.491Z,68.48
2019-03-18T08:19:50.481Z,68.68
2019-03-18T08:20:50.474Z,68.58
2019-03-18T08:21:50.493Z,68.06
2019-03-18T08:22:50.449Z,68.99
2019-03-18T08:23:50.440Z,68.27
2019-03-18T08:24:50.438Z,69.20
2019-03-18T08:25:50.422Z,68.58
2019-03-18T08:26:50.425Z,68.03
2019-03-18T08:27:50.397Z,67.82
2019-03-18T08:28:50.389Z,67.54
2019-03-18T08:29:50.376Z,67.72
2019-03-18T08:30:50.365Z,67.13
2019-03-18T08:31:50.367Z,68.16
2019-03-18T08:32:50.348Z,67.65
2019-03-18T08:33:50.334Z,68.88
2019-03-18T08:34:50.324Z,68.68
2019-03-18T08:35:50.317Z,67.96
2019-03-18T08:36:50.326Z,68.48
2019-03-18T08:37:50.293Z,68.03
2019-03-18T08:38:50.283Z,66.55
2019-03-18T08:39:50.273Z,66.27
2019-03-18T08:40:50.262Z,66.04
2019-03-18T08:41:50.268Z,65.83
2019-03-18T08:42:50.240Z,66.11
2019-03-18T08:43:50.232Z,65.94
2019-03-18T08:44:50.221Z,65.39
2019-03-18T08:45:50.212Z,65.59
2019-03-18T08:46:50.210Z,64.36
2019-03-18T08:47:50.192Z,64.15
2019-03-18T08:48:55.733Z,64.98
2019-03-18T08:49:51.169Z,64.95
2019-03-18T08:50:50.162Z,66.08
2019-03-18T08:51:50.166Z,65.77
2019-03-18T08:52:50.137Z,66.42
2019-03-18T08:53:50.129Z,65.67
2019-03-18T08:54:50.115Z,65.36
2019-03-18T08:55:50.119Z,65.56
2019-03-18T08:56:50.105Z,66.25
2019-03-18T08:57:50.086Z,64.92
2019-03-18T08:58:50.080Z,65.02
2019-03-18T08:59:50.064Z,64.61
2019-03-18T09:00:50.057Z,64.50
2019-03-18T09:01:50.060Z,64.40
2019-03-18T09:02:50.033Z,65.84
2019-03-18T09:03:50.026Z,65.53
2019-03-18T09:04:50.011Z,64.81
2019-03-18T09:05:50.001Z,65.64
2019-03-18T09:06:50.015Z,65.64
2019-03-18T09:07:49.984Z,65.64
2019-03-18T09:08:49.972Z,63.54
2019-03-18T09:09:49.960Z,64.37
2019-03-18T09:10:49.953Z,63.13
2019-03-18T09:11:49.959Z,63.21
2019-03-18T09:12:49.928Z,63.24
2019-03-18T09:13:49.917Z,63.10
2019-03-18T09:14:49.985Z,62.79
2019-03-18T09:15:49.926Z,61.53
2019-03-18T09:16:49.896Z,61.33
2019-03-18T09:17:49.876Z,61.84
2019-03-18T09:18:49.867Z,62.49
2019-03-18T09:19:49.854Z,62.49
2019-03-18T09:20:49.844Z,61.74
2019-03-18T09:21:49.844Z,61.61
2019-03-18T09:22:49.824Z,60.89
2019-03-18T09:23:49.815Z,61.91
2019-03-18T09:24:49.801Z,61.81
2019-03-18T09:25:49.796Z,61.51
2019-03-18T09:27:01.497Z,60.89
2019-03-18T09:27:50.767Z,60.96
2019-03-18T09:28:49.772Z,60.99
2019-03-18T09:29:49.757Z,61.19
2019-03-18T09:30:49.736Z,61.81
2019-03-18T09:31:49.742Z,61.30
2019-03-18T09:32:49.714Z,61.33
2019-03-18T09:33:49.724Z,61.30
2019-03-18T09:34:49.694Z,60.68
2019-03-18T09:35:49.685Z,60.99
2019-03-18T09:36:49.683Z,61.37
2019-03-18T09:37:49.668Z,61.40
2019-03-18T09:38:49.651Z,61.61
2019-03-18T09:39:49.641Z,60.75
2019-03-18T09:40:49.634Z,60.86
2019-03-18T09:41:49.632Z,60.93
2019-03-18T09:42:49.609Z,60.83
2019-03-18T09:43:49.599Z,61.17
2019-03-18T09:44:49.587Z,60.65
2019-03-18T09:45:49.583Z,60.75
2019-03-18T09:46:49.577Z,60.03
2019-03-18T09:47:49.555Z,61.17
2019-03-18T09:48:49.549Z,61.40
2019-03-18T09:49:49.537Z,60.86
2019-03-18T09:50:49.523Z,60.65
2019-03-18T09:51:49.526Z,60.96
2019-03-18T09:52:49.503Z,59.63
2019-03-18T09:53:49.493Z,58.29
2019-03-18T09:54:49.483Z,58.80
2019-03-18T09:55:49.470Z,58.18
2019-03-18T09:56:49.488Z,58.08
2019-03-18T09:57:49.454Z,58.91
2019-03-18T09:58:49.440Z,58.39
2019-03-18T09:59:49.431Z,57.67
2019-03-18T10:00:49.419Z,57.57
2019-03-18T10:01:49.407Z,58.01
2019-03-18T10:02:49.423Z,58.01
2019-03-18T10:03:49.386Z,58.50
2019-03-18T10:04:49.376Z,56.57
2019-03-18T10:05:49.376Z,57.36
2019-03-18T10:06:49.362Z,57.98
2019-03-18T10:07:49.353Z,55.72
2019-03-18T10:08:49.351Z,54.90
2019-03-18T10:09:49.325Z,55.72
2019-03-18T10:10:49.314Z,55.49
2019-03-18T10:11:49.303Z,54.79
2019-03-18T10:12:49.310Z,54.36
2019-03-18T10:13:49.284Z,54.38
2019-03-18T10:14:49.269Z,54.97
2019-03-18T10:15:49.261Z,51.99
2019-03-18T10:16:49.249Z,52.64
2019-03-18T10:17:49.314Z,52.81
2019-03-18T10:18:49.237Z,52.09
2019-03-18T10:19:49.216Z,52.61
2019-03-18T10:20:49.205Z,52.09
2019-03-18T10:21:49.197Z,51.35
2019-03-18T10:22:49.195Z,51.25
2019-03-18T10:23:49.175Z,50.63
2019-03-18T10:24:49.162Z,51.07
2019-03-18T10:25:49.156Z,50.74
2019-03-18T10:26:49.149Z,50.71
2019-03-18T10:27:49.137Z,50.71
2019-03-18T10:28:49.146Z,50.40
2019-03-18T10:29:49.110Z,50.30
2019-03-18T10:30:49.107Z,51.35
2019-03-18T10:31:49.090Z,50.63
2019-03-18T10:32:49.082Z,50.94
2019-03-18T10:33:49.093Z,50.94
2019-03-18T10:34:49.077Z,51.35
2019-03-18T10:35:49.050Z,51.35
2019-03-18T10:36:49.036Z,51.43
2019-03-18T10:37:49.051Z,51.84
2019-03-18T10:38:49.016Z,51.87
2019-03-18T10:39:49.009Z,51.35
2019-03-18T10:40:48.996Z,51.87
2019-03-18T10:41:48.983Z,52.59
2019-03-18T10:42:48.978Z,52.59
2019-03-18T10:43:48.965Z,53.28
2019-03-18T10:44:48.952Z,53.56
2019-03-18T10:45:48.942Z,50.48
2019-03-18T10:46:48.933Z,49.66
2019-03-18T10:47:48.936Z,50.26
2019-03-18T10:48:48.909Z,50.26
2019-03-18T10:49:48.898Z,48.61
2019-03-18T10:50:48.888Z,48.61
2019-03-18T10:51:48.892Z,48.92
2019-03-18T10:52:48.898Z,47.89
2019-03-18T10:53:48.866Z,48.92
2019-03-18T10:54:48.862Z,49.05
2019-03-18T10:55:48.835Z,49.15
2019-03-18T10:56:48.827Z,49.46
2019-03-18T10:57:48.827Z,50.07
2019-03-18T10:58:48.811Z,49.02
2019-03-18T10:59:48.793Z,48.94
2019-03-18T11:00:48.785Z,49.15
2019-03-18T11:01:48.776Z,49.15
2019-03-18T11:02:48.777Z,49.33
2019-03-18T11:03:48.752Z,49.13
2019-03-18T11:04:48.746Z,49.13
2019-03-18T11:05:48.731Z,47.49
2019-03-18T11:06:48.721Z,48.08
2019-03-18T11:07:51.551Z,48.61
2019-03-18T11:08:48.698Z,48.92
2019-03-18T11:09:48.714Z,48.43
2019-03-18T11:10:48.678Z,47.81
2019-03-18T11:11:48.665Z,47.09
2019-03-18T11:12:48.657Z,47.69
2019-03-18T11:13:48.676Z,47.49
2019-03-18T11:14:48.639Z,46.28
2019-03-18T11:15:48.624Z,46.91
2019-03-18T11:16:48.614Z,48.04
2019-03-18T11:17:48.606Z,48.56
2019-03-18T11:18:48.605Z,47.81
2019-03-18T11:19:57.763Z,47.84
2019-03-18T11:20:49.584Z,48.54
2019-03-18T11:21:48.561Z,47.71
2019-03-18T11:22:48.551Z,46.67
2019-03-18T11:23:48.556Z,46.87
2019-03-18T11:24:48.532Z,46.36
2019-03-18T11:25:48.555Z,46.15
2019-03-18T11:26:48.516Z,45.95
2019-03-18T11:27:48.497Z,46.25
2019-03-18T11:28:48.500Z,46.05
2019-03-18T11:29:48.476Z,45.51
2019-03-18T11:30:48.465Z,46.11
2019-03-18T11:31:48.455Z,45.78
2019-03-18T11:32:48.444Z,46.17
2019-03-18T11:33:48.444Z,46.17
2019-03-18T11:34:48.424Z,48.11
2019-03-18T11:35:48.414Z,47.60
2019-03-18T11:36:48.424Z,47.81
2019-03-18T11:37:48.400Z,45.97
2019-03-18T11:38:48.400Z,44.86
2019-03-18T11:39:48.373Z,45.89
2019-03-18T11:40:48.359Z,45.98
2019-03-18T11:41:48.354Z,45.98
2019-03-18T11:42:48.346Z,46.81
2019-03-18T11:43:48.346Z,46.27
2019-03-18T11:44:48.318Z,45.56
2019-03-18T11:45:48.312Z,44.02
2019-03-18T11:46:48.303Z,44.43
2019-03-18T11:47:48.295Z,44.84
2019-03-18T11:48:48.285Z,45.04
2019-03-18T11:49:48.264Z,45.04
2019-03-18T11:50:48.254Z,44.12
2019-03-18T11:51:48.257Z,43.40
2019-03-18T11:52:48.236Z,44.35
2019-03-18T11:53:48.264Z,44.45
2019-03-18T11:54:48.224Z,43.43
2019-03-18T11:55:48.207Z,44.37
2019-03-18T11:56:48.190Z,44.17
2019-03-18T11:57:48.181Z,44.55
2019-03-18T11:58:48.179Z,44.65
2019-03-18T11:59:48.164Z,44.55
2019-03-18T12:00:48.148Z,45.86
2019-03-18T12:01:48.137Z,44.82
2019-03-18T12:02:48.126Z,44.90
2019-03-18T12:03:48.143Z,44.57
2019-03-18T12:04:48.106Z,44.55
2019-03-18T12:05:48.098Z,42.49
2019-03-18T12:06:48.095Z,41.56
2019-03-18T12:07:48.077Z,41.24
2019-03-18T12:08:48.063Z,40.32
2019-03-18T12:09:48.066Z,41.96
2019-03-18T12:10:48.043Z,41.65
2019-03-18T12:11:48.040Z,42.67
2019-03-18T12:12:48.022Z,42.36
2019-03-18T12:13:48.011Z,42.18
2019-03-18T12:14:48.034Z,43.20
2019-03-18T12:15:47.991Z,41.69
2019-03-18T12:16:47.978Z,42.49
2019-03-18T12:17:47.969Z,41.97
2019-03-18T12:18:47.958Z,41.42
2019-03-18T12:19:47.962Z,39.96
2019-03-18T12:20:47.936Z,41.22
2019-03-18T12:21:47.926Z,42.16
2019-03-18T12:22:47.917Z,42.29
2019-03-18T12:23:47.916Z,43.41
2019-03-18T12:24:47.904Z,43.00
2019-03-18T12:25:47.883Z,41.30
2019-03-18T12:26:49.258Z,37.12
2019-03-18T12:27:47.865Z,38.78
2019-03-18T12:28:47.852Z,38.51
2019-03-18T12:29:47.855Z,39.55
2019-03-18T12:30:47.839Z,39.65
2019-03-18T12:31:47.820Z,39.74
2019-03-18T12:32:47.808Z,37.39
2019-03-18T12:33:47.798Z,33.63
2019-03-18T12:34:47.799Z,27.86
2019-03-18T12:35:47.779Z,29.11
2019-03-18T12:36:47.766Z,32.76
2019-03-18T12:37:47.760Z,33.94
2019-03-18T12:38:47.746Z,34.61
2019-03-18T12:39:47.747Z,35.97
2019-03-18T12:40:47.724Z,37.33
2019-03-18T12:41:47.714Z,37.74
2019-03-18T12:42:47.711Z,38.67
2019-03-18T12:43:47.693Z,37.84
2019-03-18T12:44:47.696Z,38.06
2019-03-18T12:45:47.683Z,38.67
2019-03-18T12:46:47.662Z,38.78
2019-03-18T12:47:47.650Z,38.67
2019-03-18T12:48:47.641Z,39.69
2019-03-18T12:49:47.640Z,38.96
2019-03-18T12:50:55.741Z,39.90
2019-03-18T12:51:48.609Z,40.10
2019-03-18T12:52:47.598Z,40.44